Terminal Aerodrome Forecast
Issued by NWS Brownsville, TX

Home | Current Version | Previous Version | Text Only | Print | Product List | Glossary On
Versions: 1 2 3 4 5 6 7 8 9 10 11 12 13 14 15 16 17 18
000
FTUS44 KBRO 281740
TAFBRO
TAF
KBRO 281740Z 2818/2918 15015G24KT P6SM SCT035 BKN050
     FM282200 10014KT P6SM SCT050
     FM290200 16011KT P6SM SCT015 BKN025
     FM291400 14015KT P6SM SCT025 BKN035=

USA.gov is the U.S. government's official web portal to all federal, state and local government web resources and services.